Pagina principale
METAR-TAF:

METAR-TAF

Aeroporti :

Le Luc, Francia

latitudine: 43-23N, longitudine: 006-23E, altezza: 80 m

Osservazione

Il bollettino è stato emesso 43 minuti fa, alle 18:30 UTC
Vento 3 kt da direzioni variabili
Temperature 6°C
Umidità 93%
Pressione 1013 hPa
Visibilità: 3700 m
Nuvoloso ad un'altezza di 4700 ft
Cielo coperto ad un'altezza di 5400 ft
foschia

METAR: LFMC 191830Z AUTO VRB03KT 3700 BR BKN047 OVC054 06/05 Q1013

Ora: 20:13 (19:13 UTC)


TAF: mancante

Osservazioni e previsioni meteorologiche di più di 4000 aeroporti (messaggi METAR e TAF).

Le stazioni disponibili sono rappresentate dai dischi gialli e rossi sulla carta.

Puntare il mouse per vedere il nome della stazione.

Clicca sopra per visualizzare le osservazioni e previsioni meteorologiche.

Per cambiare la mappa : fare clic sui pulsanti verdi con una croce nera per ingrandire, il pulsante verde con un trattino per diminuire, o sulla freccia verde per le mappe adiacenti.


METAR-TAF: